Terminal Aerodrome Forecast
Issued by NWS

Current Version | Previous Version | Graphics & Text | Print | Product List | Glossary On
Versions: 1 2 3 4 5 6 7 8 9 10 11 12 13 14
000
FTUS41 KILN 212336
TAFLCK
TAF
KLCK 212336Z 2200/2224 35008KT P6SM VCSH BKN080
     FM220300 36009KT P6SM VCSH BKN080
     FM221100 02010KT P6SM BKN070
     FM221300 03010KT P6SM VCSH BKN060
     FM221800 04010KT P6SM OVC035=

USA.gov is the U.S. government's official web portal to all federal, state and local government web resources and services.